createdAt,value
2018-12-02T00:03:07.782Z,10.41
2018-12-02T00:07:11.916Z,10.48
2018-12-02T00:11:15.855Z,10.45
2018-12-02T00:15:22.898Z,10.48
2018-12-02T00:19:26.903Z,10.38
2018-12-02T00:23:30.965Z,10.42
2018-12-02T00:27:34.963Z,10.51
2018-12-02T00:31:38.976Z,10.52
2018-12-02T00:35:42.995Z,10.48
2018-12-02T00:39:47.049Z,10.50
2018-12-02T00:43:51.067Z,10.47
2018-12-02T00:47:55.141Z,10.41
2018-12-02T00:51:59.212Z,10.49
2018-12-02T00:56:02.117Z,10.50
2018-12-02T01:00:11.781Z,10.55
2018-12-02T01:04:15.809Z,10.53
2018-12-02T01:08:19.864Z,10.51
2018-12-02T01:12:23.786Z,10.51
2018-12-02T01:16:27.853Z,10.54
2018-12-02T01:20:31.880Z,10.58
2018-12-02T01:24:35.893Z,10.62
2018-12-02T01:28:39.908Z,10.62
2018-12-02T01:32:43.913Z,10.62
2018-12-02T01:36:47.858Z,10.61
2018-12-02T01:40:51.858Z,10.58
2018-12-02T01:44:55.924Z,10.68
2018-12-02T01:48:59.894Z,10.60
2018-12-02T01:53:03.949Z,10.60
2018-12-02T01:57:08.003Z,10.61
2018-12-02T02:01:11.974Z,10.63
2018-12-02T02:05:17.023Z,10.55
2018-12-02T02:09:21.032Z,10.54
2018-12-02T02:13:25.663Z,10.53
2018-12-02T02:17:29.735Z,10.50
2018-12-02T02:21:34.375Z,10.61
2018-12-02T02:25:38.386Z,10.65
2018-12-02T02:29:42.308Z,10.55
2018-12-02T02:33:46.296Z,10.42
2018-12-02T02:37:51.330Z,10.42
2018-12-02T02:41:55.400Z,10.22
2018-12-02T02:45:59.480Z,10.08
2018-12-02T02:50:04.568Z,9.74
2018-12-02T02:54:08.611Z,9.62
2018-12-02T02:58:13.226Z,9.54
2018-12-02T03:02:17.149Z,9.49
2018-12-02T03:06:21.183Z,9.50
2018-12-02T03:10:25.175Z,9.36
2018-12-02T03:14:29.072Z,9.33
2018-12-02T03:18:33.095Z,9.35
2018-12-02T03:22:37.115Z,9.28
2018-12-02T03:26:41.183Z,9.30
2018-12-02T03:30:45.100Z,9.32
2018-12-02T03:34:49.055Z,9.27
2018-12-02T03:38:53.018Z,9.24
2018-12-02T03:42:57.128Z,9.33
2018-12-02T03:47:01.215Z,9.34
2018-12-02T03:51:06.167Z,9.32
2018-12-02T03:55:10.211Z,9.33
2018-12-02T03:59:14.267Z,9.41
2018-12-02T04:03:18.209Z,9.36
2018-12-02T04:07:22.214Z,9.35
2018-12-02T04:11:26.223Z,9.32
2018-12-02T04:15:30.255Z,9.35
2018-12-02T04:19:34.298Z,9.34
2018-12-02T04:23:38.273Z,9.34
2018-12-02T04:27:42.338Z,9.29
2018-12-02T04:31:46.258Z,9.23
2018-12-02T04:35:50.291Z,9.35
2018-12-02T04:39:54.231Z,9.33
2018-12-02T04:43:58.232Z,9.43
2018-12-02T04:48:02.225Z,9.41
2018-12-02T04:52:06.246Z,9.47
2018-12-02T04:56:10.243Z,9.44
2018-12-02T05:00:15.993Z,9.40
2018-12-02T05:04:19.935Z,9.44
2018-12-02T05:08:24.010Z,9.45
2018-12-02T05:12:27.942Z,9.50
2018-12-02T05:16:31.926Z,9.59
2018-12-02T05:20:35.926Z,9.54
2018-12-02T05:24:40.003Z,9.66
2018-12-02T05:28:43.998Z,9.74
2018-12-02T05:32:48.763Z,9.74
2018-12-02T05:36:52.713Z,9.81
2018-12-02T05:40:56.622Z,9.77
2018-12-02T05:45:01.149Z,9.89
2018-12-02T05:49:05.503Z,9.92
2018-12-02T05:53:09.634Z,9.90
2018-12-02T05:57:13.561Z,9.92
2018-12-02T06:01:17.597Z,9.95
2018-12-02T06:05:21.659Z,9.95
2018-12-02T06:09:25.643Z,9.94
2018-12-02T06:13:29.657Z,9.92
2018-12-02T06:19:02.863Z,9.91
2018-12-02T06:23:06.991Z,9.84
2018-12-02T06:27:11.136Z,9.80
2018-12-02T06:31:15.067Z,9.89
2018-12-02T06:35:19.089Z,9.86
2018-12-02T06:39:23.102Z,9.93
2018-12-02T06:43:27.144Z,9.95
2018-12-02T06:47:31.124Z,10.05
2018-12-02T06:51:35.237Z,10.02
2018-12-02T06:55:44.667Z,9.99
2018-12-02T07:00:04.204Z,10.09
2018-12-02T07:04:18.485Z,10.20
2018-12-02T07:08:22.500Z,10.23
2018-12-02T07:12:26.584Z,10.24
2018-12-02T07:16:30.602Z,10.34
2018-12-02T07:20:34.646Z,10.42
2018-12-02T07:24:39.387Z,10.55
2018-12-02T07:28:43.407Z,10.52
2018-12-02T07:32:47.463Z,10.49
2018-12-02T07:36:58.928Z,10.61
2018-12-02T07:41:18.750Z,10.64
2018-12-02T07:45:22.770Z,10.65
2018-12-02T07:49:26.877Z,10.68
2018-12-02T07:53:30.936Z,10.80
2018-12-02T07:57:34.883Z,10.84
2018-12-02T08:01:38.880Z,10.86
2018-12-02T08:05:42.891Z,10.88
2018-12-02T08:09:47.771Z,10.97
2018-12-02T08:13:51.747Z,10.96
2018-12-02T08:17:55.788Z,11.10
2018-12-02T08:22:00.024Z,11.13
2018-12-02T08:26:04.047Z,11.20
2018-12-02T08:30:14.540Z,11.16
2018-12-02T08:34:18.634Z,11.23
2018-12-02T08:38:22.643Z,11.23
2018-12-02T08:42:26.645Z,11.24
2018-12-02T08:46:30.684Z,11.22
2018-12-02T08:50:34.734Z,11.26
2018-12-02T08:54:38.726Z,11.31
2018-12-02T08:58:42.727Z,11.37
2018-12-02T09:02:53.936Z,11.48
2018-12-02T09:06:57.953Z,11.56
2018-12-02T09:11:01.972Z,11.60
2018-12-02T09:15:08.112Z,11.62
2018-12-02T09:19:12.192Z,11.67
2018-12-02T09:23:16.114Z,11.68
2018-12-02T09:27:20.110Z,11.81
2018-12-02T09:31:24.075Z,11.78
2018-12-02T09:35:28.049Z,11.91
2018-12-02T09:39:32.195Z,11.93
2018-12-02T09:43:36.150Z,12.03
2018-12-02T09:47:40.096Z,12.04
2018-12-02T09:51:44.894Z,12.15
2018-12-02T09:55:49.374Z,12.21
2018-12-02T09:59:53.374Z,12.24
2018-12-02T10:03:57.395Z,12.26
2018-12-02T10:08:01.384Z,12.32
2018-12-02T10:12:05.374Z,12.28
2018-12-02T10:16:15.528Z,12.31
2018-12-02T10:20:15.652Z,12.26
2018-12-02T10:24:19.951Z,12.27
2018-12-02T10:28:23.872Z,12.22
2018-12-02T10:32:27.845Z,12.30
2018-12-02T10:36:33.786Z,12.31
2018-12-02T10:40:38.259Z,12.36
2018-12-02T10:44:42.263Z,12.38
2018-12-02T10:48:46.176Z,12.38
2018-12-02T10:52:51.094Z,12.43
2018-12-02T10:56:55.063Z,12.53
2018-12-02T11:01:05.447Z,12.61
2018-12-02T11:05:09.518Z,12.66
2018-12-02T11:09:13.619Z,12.71
2018-12-02T11:13:17.607Z,12.71
2018-12-02T11:17:21.614Z,12.79
2018-12-02T11:21:25.567Z,12.83
2018-12-02T11:25:29.538Z,12.95
2018-12-02T11:29:33.475Z,13.12
2018-12-02T11:33:37.421Z,13.14
2018-12-02T11:37:41.544Z,13.16
2018-12-02T11:41:45.471Z,13.23
2018-12-02T11:45:49.424Z,13.33
2018-12-02T11:49:53.350Z,13.41
2018-12-02T11:53:57.415Z,13.48
2018-12-02T11:58:01.348Z,13.56
2018-12-02T12:02:07.717Z,13.54
2018-12-02T12:06:09.401Z,13.51
2018-12-02T12:10:17.126Z,13.61
2018-12-02T12:14:21.069Z,13.71
2018-12-02T12:18:25.043Z,13.72
2018-12-02T12:22:29.191Z,13.74
2018-12-02T12:26:33.178Z,13.75
2018-12-02T12:30:37.771Z,13.70
2018-12-02T12:34:41.739Z,13.74
2018-12-02T12:38:45.819Z,13.69
2018-12-02T12:43:10.447Z,13.72
2018-12-02T12:47:14.700Z,13.79
2018-12-02T12:51:18.747Z,13.78
2018-12-02T12:55:22.784Z,13.80
2018-12-02T12:59:26.740Z,13.86
2018-12-02T13:03:30.688Z,13.88
2018-12-02T13:07:34.755Z,13.88
2018-12-02T13:11:38.719Z,13.94
2018-12-02T13:15:42.654Z,13.94
2018-12-02T13:19:47.620Z,13.93
2018-12-02T13:23:51.576Z,13.76
2018-12-02T13:27:55.718Z,13.69
2018-12-02T13:31:59.730Z,13.56
2018-12-02T13:36:03.809Z,13.61
2018-12-02T13:40:11.340Z,13.66
2018-12-02T13:44:15.329Z,13.60
2018-12-02T13:48:19.415Z,13.47
2018-12-02T13:52:23.443Z,13.49
2018-12-02T13:56:27.503Z,13.37
2018-12-02T14:00:31.864Z,13.30
2018-12-02T14:04:35.839Z,13.26
2018-12-02T14:08:39.912Z,13.25
2018-12-02T14:13:00.844Z,13.27
2018-12-02T14:17:09.108Z,13.32
2018-12-02T14:21:13.121Z,13.39
2018-12-02T14:25:17.026Z,13.34
2018-12-02T14:29:30.264Z,13.23
2018-12-02T14:33:35.873Z,13.13
2018-12-02T14:37:38.355Z,13.07
2018-12-02T14:41:42.431Z,12.99
2018-12-02T14:45:46.519Z,13.02
2018-12-02T14:49:50.476Z,12.90
2018-12-02T14:53:54.496Z,12.90
2018-12-02T14:57:58.450Z,12.79
2018-12-02T15:02:02.406Z,12.78
2018-12-02T15:06:06.385Z,12.78
2018-12-02T15:10:14.559Z,12.80
2018-12-02T15:14:18.496Z,12.90
2018-12-02T15:18:22.540Z,12.97
2018-12-02T15:22:26.558Z,13.05
2018-12-02T15:26:30.498Z,13.06
2018-12-02T15:30:34.509Z,13.03
2018-12-02T15:34:38.485Z,12.99
2018-12-02T15:38:42.660Z,13.02
2018-12-02T15:42:48.685Z,12.90
2018-12-02T15:46:52.888Z,12.82
2018-12-02T15:50:57.000Z,12.80
2018-12-02T15:55:01.068Z,12.73
2018-12-02T15:59:08.427Z,12.69
2018-12-02T16:03:12.438Z,12.72
2018-12-02T16:07:16.739Z,12.74
2018-12-02T16:11:20.684Z,12.72
2018-12-02T16:15:26.924Z,12.74
2018-12-02T16:19:30.956Z,12.68
2018-12-02T16:23:34.991Z,12.67
2018-12-02T16:27:39.040Z,12.65
2018-12-02T16:31:43.000Z,12.66
2018-12-02T16:35:47.011Z,12.73
2018-12-02T16:39:51.023Z,12.77
2018-12-02T16:43:55.155Z,12.87
2018-12-02T16:47:59.679Z,12.80
2018-12-02T16:52:03.867Z,12.79
2018-12-02T16:56:12.516Z,12.77
2018-12-02T17:00:23.047Z,12.76
2018-12-02T17:04:27.282Z,12.81
2018-12-02T17:08:31.465Z,12.81
2018-12-02T17:12:35.457Z,12.80
2018-12-02T17:16:39.382Z,12.85
2018-12-02T17:20:43.386Z,12.81
2018-12-02T17:24:47.423Z,12.83
2018-12-02T17:28:51.455Z,12.81
2018-12-02T17:32:55.406Z,12.88
2018-12-02T17:36:59.343Z,12.96
2018-12-02T17:41:03.795Z,12.95
2018-12-02T17:45:09.404Z,13.03
2018-12-02T17:49:13.352Z,12.99
2018-12-02T17:53:17.363Z,12.86
2018-12-02T17:57:22.410Z,12.92
2018-12-02T18:01:26.345Z,12.96
2018-12-02T18:05:36.879Z,12.87
2018-12-02T18:09:40.958Z,12.95
2018-12-02T18:13:45.322Z,12.85
2018-12-02T18:17:49.500Z,12.81
2018-12-02T18:21:53.678Z,13.01
2018-12-02T18:25:57.808Z,13.00
2018-12-02T18:30:01.897Z,12.96
2018-12-02T18:34:06.356Z,12.98
2018-12-02T18:38:18.592Z,12.96
2018-12-02T18:42:22.844Z,12.99
2018-12-02T18:46:26.864Z,12.97
2018-12-02T18:50:30.919Z,12.95
2018-12-02T18:54:35.016Z,12.91
2018-12-02T18:58:39.099Z,12.98
2018-12-02T19:02:43.457Z,13.01
2018-12-02T19:06:47.531Z,12.92
2018-12-02T19:10:56.774Z,12.91
2018-12-02T19:15:00.876Z,12.94
2018-12-02T19:19:04.971Z,12.97
2018-12-02T19:23:14.640Z,12.95
2018-12-02T19:27:18.887Z,12.71
2018-12-02T19:31:23.032Z,12.66
2018-12-02T19:35:30.834Z,12.64
2018-12-02T19:39:34.897Z,12.58
2018-12-02T19:43:38.967Z,12.62
2018-12-02T19:47:42.995Z,12.60
2018-12-02T19:51:47.014Z,12.58
2018-12-02T19:55:51.267Z,12.63
2018-12-02T19:59:55.555Z,12.60
2018-12-02T20:03:59.611Z,12.58
2018-12-02T20:08:03.778Z,12.68
2018-12-02T20:12:07.780Z,12.73
2018-12-02T20:16:18.623Z,12.79
2018-12-02T20:20:27.979Z,12.80
2018-12-02T20:24:37.353Z,12.91
2018-12-02T20:28:48.698Z,12.85
2018-12-02T20:32:52.723Z,12.94
2018-12-02T20:36:56.811Z,12.93
2018-12-02T20:41:00.761Z,12.87
2018-12-02T20:45:07.553Z,12.91
2018-12-02T20:49:11.735Z,12.87
2018-12-02T20:53:16.156Z,12.88
2018-12-02T20:57:19.671Z,12.89
2018-12-02T21:01:23.675Z,12.93
2018-12-02T21:05:31.344Z,12.91
2018-12-02T21:09:35.320Z,12.92
2018-12-02T21:13:39.264Z,12.88
2018-12-02T21:17:43.259Z,12.85
2018-12-02T21:21:47.263Z,12.99
2018-12-02T21:25:52.097Z,12.88
2018-12-02T21:29:57.043Z,12.88
2018-12-02T21:35:03.858Z,12.83
2018-12-02T21:39:09.768Z,12.87
2018-12-02T21:43:15.440Z,12.98
2018-12-02T21:47:21.333Z,12.83
2018-12-02T21:51:23.465Z,12.80
2018-12-02T21:55:27.412Z,12.75
2018-12-02T21:59:31.483Z,12.67
2018-12-02T22:03:35.536Z,12.72
2018-12-02T22:07:40.029Z,12.64
2018-12-02T22:11:44.063Z,12.66
2018-12-02T22:15:48.241Z,12.59
2018-12-02T22:19:52.311Z,12.56
2018-12-02T22:24:01.132Z,12.56
2018-12-02T22:28:00.238Z,12.60
2018-12-02T22:32:04.297Z,12.52
2018-12-02T22:36:13.919Z,12.53
2018-12-02T22:40:18.238Z,12.50
2018-12-02T22:44:22.162Z,12.49
2018-12-02T22:48:26.199Z,12.51
2018-12-02T22:52:30.462Z,12.51
2018-12-02T22:56:34.472Z,12.60
2018-12-02T23:00:44.053Z,12.55
2018-12-02T23:04:48.083Z,12.64
2018-12-02T23:08:52.118Z,12.59
2018-12-02T23:12:56.328Z,12.57
2018-12-02T23:17:11.623Z,12.51
2018-12-02T23:22:18.777Z,12.47
2018-12-02T23:26:22.790Z,12.29
2018-12-02T23:30:27.138Z,12.32
2018-12-02T23:34:31.086Z,12.38
2018-12-02T23:38:35.047Z,12.32
2018-12-02T23:42:39.110Z,12.37
2018-12-02T23:46:43.151Z,12.40
2018-12-02T23:50:47.108Z,12.47
2018-12-02T23:54:51.049Z,12.48
2018-12-02T23:58:55.009Z,12.65
